Fernald, Iowa
Current Conditions -  °F | °C
As of 2:53 PM on Wednesday 17 Dec 2014 (Local Time) from KAMW Reporting Station
Clear Clear  
Wind Chill: 18°   Ceiling: Unl
Heat Index: 25°   Visibility: 10mi
Dew Point: 15°   Wind: 6mph
Humidity: 66%   Direction: 330°NNW
Pressure: 30.28"   Gusts: NA
Location:  42.0225°N, 93.4344°W
Report Text: KAMW 172053Z AUTO 33005KT 10SM CLR M04/M09 A3028 RMK AO2 SLP266 T10391094 55013
Loading
Personal Weather Stations






























Interactive Weather Map New forecast layout! Learn more

10-Day Weather Forecast

Advertisements
Track Severe Weather on mobile